CheckWX is a tool to help pilots better visualize weather data.  It is not intended as a substitute for an official pre-flight weather briefing.

14:44:55 UTC

KCNO METAR
Chino Airport
Chino, California, USA
Current

52 mins ago

KCNO 201353Z 00000KT 10SM SCT035 11/11 A2989 RMK AO2 SLP118 T01110111
Observed
May-20 @ 13:53 UTC
Visibility
10 SM
Flight Rules
VFR
Cloud Levels
  • Scattered at 3,500' AGL
Temperature
11°C / 52°F
Dewpoint
11°C / 52°F
Humidity
100%
Altimeter
29.89" Hg
Pressure
1012.22 hPa
Previous

2 hours ago

KCNO 201253Z AUTO 26006KT 10SM CLR 09/08 A2986 RMK AO2 SLP109 T00890083
Observed
May-20 @ 12:53 UTC
Wind
  • 260° at 6 KTS
Visibility
10 SM
Flight Rules
VFR
Cloud Levels
  • Clear skies
Temperature
C / 48°F
Dewpoint
C / 46°F
Humidity
94%
Altimeter
29.86" Hg
Pressure
1011.22 hPa
Previous

3 hours ago

KCNO 201153Z AUTO 23005KT 10SM BKN075 10/10 A2985 RMK AO2 SLP106 60000 70008 T01000100 10128 20100 58005
Observed
May-20 @ 11:53 UTC
Wind
  • 230° at 5 KTS
Visibility
10 SM
Flight Rules
VFR
Cloud Levels
  • Broken at 7,500' AGL
Temperature
10°C / 50°F
Dewpoint
10°C / 50°F
Humidity
100%
Altimeter
29.85" Hg
Pressure
1010.82 hPa
24 Hour Rain
0.08"